Time;durP1;ratioP1;P1;durP2;ratioP2;P2;SDS_P1;SDS_P2;PMS_P1;PMS_P2;Temp;Humidity;BMP_temperature;BMP_pressure;BME280_temperature;BME280_humidity;BME280_pressure;Samples;Min_cycle;Max_cycle;Signal;HPM_P1;HPM_P2
2023/04/13 00:00:44;;;;;;;1.50;0.77;;;;;;;12.85;35.67;97891.06;5032798;28;20406;-80
2023/04/13 00:03:11;;;;;;;3.00;1.13;;;;;;;12.87;35.37;97890.91;5031662;28;20040;-79
2023/04/13 00:05:40;;;;;;;1.33;0.80;;;;;;;12.83;35.45;97891.22;5015614;28;20041;-79
2023/04/13 00:08:05;;;;;;;2.28;1.10;;;;;;;12.85;35.65;97888.44;4999121;28;20492;-79
2023/04/13 00:10:40;;;;;;;5.15;0.90;;;;;;;12.83;35.38;97893.84;5031736;28;20050;-79
2023/04/13 00:13:09;;;;;;;1.08;0.85;;;;;;;12.81;35.59;97890.56;5000246;28;20488;-80
2023/04/13 00:15:36;;;;;;;1.67;0.95;;;;;;;12.83;35.58;97896.44;5015329;28;20087;-78
2023/04/13 00:18:02;;;;;;;1.95;0.80;;;;;;;12.83;35.42;97913.97;5015171;28;20488;-79
2023/04/13 00:20:28;;;;;;;4.38;0.70;;;;;;;12.83;35.21;97921.84;4998427;28;20045;-79
2023/04/13 00:22:54;;;;;;;2.50;0.85;;;;;;;12.76;34.82;97919.00;5015175;28;20041;-78
2023/04/13 00:25:19;;;;;;;2.45;0.95;;;;;;;12.73;35.31;97923.69;5015141;28;20040;-78
2023/04/13 00:27:45;;;;;;;2.17;1.10;;;;;;;12.65;35.54;97919.22;5032535;28;20037;-78
2023/04/13 00:30:14;;;;;;;2.25;1.00;;;;;;;12.62;35.59;97922.16;4998477;28;20041;-78
2023/04/13 00:32:41;;;;;;;2.88;1.10;;;;;;;12.57;35.95;97930.44;5015465;28;20017;-78
2023/04/13 00:35:07;;;;;;;2.90;1.13;;;;;;;12.52;35.70;97937.91;5014330;28;20135;-78
2023/04/13 00:37:33;;;;;;;3.05;1.20;;;;;;;12.50;36.26;97932.00;5014962;28;20496;-79
2023/04/13 00:39:58;;;;;;;2.55;1.05;;;;;;;12.46;36.21;97936.72;5030703;28;20072;-79
2023/04/13 00:42:24;;;;;;;4.05;1.10;;;;;;;12.46;36.20;97926.25;5031197;28;20029;-79
2023/04/13 00:44:53;;;;;;;1.73;1.20;;;;;;;12.48;36.49;97933.97;5014914;28;20456;-78
2023/04/13 00:47:31;;;;;;;;;;;;;;;12.48;36.27;97932.16;5031715;28;20084;-78
2023/04/13 00:49:59;;;;;;;2.17;1.10;;;;;;;12.41;36.71;97925.88;5014883;28;19909;-79
2023/04/13 00:52:24;;;;;;;2.95;1.00;;;;;;;12.39;36.99;97935.66;4997190;28;20033;-79
2023/04/13 00:54:50;;;;;;;4.15;1.10;;;;;;;12.34;37.06;97935.28;4998116;28;20064;-78
2023/04/13 00:57:16;;;;;;;2.88;1.10;;;;;;;12.29;37.31;97927.06;5014718;28;20119;-79
2023/04/13 00:59:41;;;;;;;3.33;1.15;;;;;;;12.27;37.06;97928.97;5015231;28;20033;-78
2023/04/13 01:02:07;;;;;;;1.88;1.00;;;;;;;12.29;37.03;97940.16;4997006;28;20061;-78
2023/04/13 01:04:33;;;;;;;3.25;1.10;;;;;;;12.26;37.59;97945.69;5031102;28;20025;-78
2023/04/13 01:07:07;;;;;;;2.28;1.27;;;;;;;12.21;37.36;97950.53;5015018;28;20049;-79
2023/04/13 01:09:40;;;;;;;2.78;1.20;;;;;;;12.16;37.82;97948.34;5014405;28;20104;-79
2023/04/13 01:12:51;;;;;;;3.92;1.70;;;;;;;12.14;37.63;97947.66;5007448;28;20395;-79
2023/04/13 01:15:16;;;;;;;4.40;1.58;;;;;;;12.12;37.73;97945.19;4962805;28;20046;-78
2023/04/13 01:17:51;;;;;;;2.05;1.25;;;;;;;12.09;37.72;97955.13;4959149;28;20473;-79
2023/04/13 01:20:16;;;;;;;6.45;1.60;;;;;;;12.01;37.45;97952.41;4960601;28;20084;-78
2023/04/13 01:22:45;;;;;;;2.17;1.40;;;;;;;12.00;37.61;97959.47;4943427;28;20496;-79
2023/04/13 01:25:29;;;;;;;2.20;1.38;;;;;;;12.02;37.65;97965.34;4975760;28;20038;-78
2023/04/13 01:27:59;;;;;;;2.85;1.45;;;;;;;12.01;37.52;97970.72;4959371;28;20077;-78
2023/04/13 01:30:27;;;;;;;6.50;1.65;;;;;;;11.99;37.59;97960.41;4959249;28;20026;-79
2023/04/13 01:32:52;;;;;;;2.67;1.30;;;;;;;11.99;37.54;97962.22;4960653;28;20041;-79
2023/04/13 01:35:19;;;;;;;2.67;1.50;;;;;;;11.98;37.41;97958.75;4959404;28;20034;-79
2023/04/13 01:37:45;;;;;;;5.65;1.88;;;;;;;12.00;37.58;97961.22;4975451;28;20078;-78
2023/04/13 01:40:12;;;;;;;3.17;1.63;;;;;;;11.91;37.56;97953.25;4991020;28;20050;-79
2023/04/13 01:42:44;;;;;;;11.23;1.88;;;;;;;11.92;37.72;97962.78;4975464;28;20034;-79
2023/04/13 01:45:42;;;;;;;3.92;1.95;;;;;;;11.92;37.87;97962.78;4975202;28;20030;-79
2023/04/13 01:48:17;;;;;;;3.53;1.50;;;;;;;11.91;38.04;97968.13;4985521;28;20046;-79
2023/04/13 01:51:06;;;;;;;2.92;1.55;;;;;;;11.86;37.81;97962.50;4975978;28;20066;-79
2023/04/13 01:53:36;;;;;;;4.00;1.75;;;;;;;11.84;38.24;97967.03;4901287;29;20107;-79
2023/04/13 01:56:03;;;;;;;4.82;2.03;;;;;;;11.85;38.03;97974.75;4882681;29;20044;-79
2023/04/13 01:58:32;;;;;;;2.65;1.75;;;;;;;11.83;38.43;97981.06;4867199;29;20105;-79
2023/04/13 02:00:58;;;;;;;2.65;1.90;;;;;;;11.79;38.54;97962.25;4888348;29;20519;-80
2023/04/13 02:03:23;;;;;;;5.43;1.60;;;;;;;11.82;38.14;97974.22;4920822;29;20031;-80
2023/04/13 02:05:49;;;;;;;3.25;1.88;;;;;;;11.80;38.28;97978.75;4955015;29;20051;-79
2023/04/13 02:08:17;;;;;;;4.72;1.67;;;;;;;11.79;38.38;97979.72;4939361;29;20046;-80
2023/04/13 02:10:43;;;;;;;3.90;1.70;;;;;;;11.79;38.37;97987.59;4923714;29;20122;-79
2023/04/13 02:13:08;;;;;;;3.25;1.60;;;;;;;11.77;38.52;97992.94;4923741;29;20374;-80
2023/04/13 02:15:35;;;;;;;4.75;2.00;;;;;;;11.74;38.56;97998.47;4955642;29;20043;-80
2023/04/13 02:18:01;;;;;;;3.92;1.80;;;;;;;11.71;38.44;97980.44;4923474;29;20457;-80
2023/04/13 02:20:29;;;;;;;3.55;2.17;;;;;;;11.70;38.68;97978.78;4907661;29;20043;-80
2023/04/13 02:22:54;;;;;;;5.03;2.08;;;;;;;11.67;38.71;97974.69;4939451;29;20023;-80
2023/04/13 02:25:20;;;;;;;7.70;1.95;;;;;;;11.64;38.93;97974.97;4955271;29;20143;-80
2023/04/13 02:27:45;;;;;;;2.30;1.90;;;;;;;11.59;38.90;97975.41;4955960;29;20035;-80
2023/04/13 02:30:11;;;;;;;2.65;1.80;;;;;;;11.57;38.89;97981.72;4964917;28;20045;-80
2023/04/13 02:32:39;;;;;;;4.13;1.90;;;;;;;11.52;39.23;97976.91;5015165;28;20473;-80
2023/04/13 02:35:11;;;;;;;3.17;1.80;;;;;;;11.48;39.07;97975.56;5015126;28;20029;-80
2023/04/13 02:37:39;;;;;;;2.78;1.67;;;;;;;11.47;39.28;97983.56;4998824;28;20038;-79
2023/04/13 02:40:11;;;;;;;4.75;1.60;;;;;;;11.44;39.33;97979.41;5013880;28;20045;-78
2023/04/13 02:42:39;;;;;;;2.50;1.70;;;;;;;11.46;39.01;97987.13;5029892;28;20037;-79
2023/04/13 02:45:06;;;;;;;2.35;1.50;;;;;;;11.43;39.06;97980.38;5013776;28;20448;-80
2023/04/13 02:47:32;;;;;;;2.97;1.42;;;;;;;11.40;39.38;97983.25;4997330;28;20032;-80
2023/04/13 02:50:00;;;;;;;3.90;1.42;;;;;;;11.36;39.36;97994.97;5015583;28;20038;-78
2023/04/13 02:52:26;;;;;;;2.58;1.50;;;;;;;11.35;39.38;97990.72;5014133;28;20514;-78
2023/04/13 02:54:53;;;;;;;2.60;1.40;;;;;;;11.29;39.38;97986.88;5015060;28;20061;-78
2023/04/13 02:57:20;;;;;;;2.05;1.30;;;;;;;11.30;39.46;97987.69;5014428;28;20025;-77
2023/04/13 02:59:45;;;;;;;4.45;1.33;;;;;;;11.25;39.44;97987.31;5020170;28;20045;-78
2023/04/13 03:02:12;;;;;;;2.45;1.33;;;;;;;11.25;39.50;97998.56;5028749;28;20084;-78
2023/04/13 03:04:37;;;;;;;2.53;1.30;;;;;;;11.23;39.40;97992.66;5020550;28;20014;-78
2023/04/13 03:07:04;;;;;;;3.47;1.10;;;;;;;11.20;39.56;97998.16;5035933;28;20033;-79
2023/04/13 03:09:30;;;;;;;4.63;1.30;;;;;;;11.14;39.62;97993.50;5035804;28;20034;-78
2023/04/13 03:11:55;;;;;;;4.25;1.48;;;;;;;11.11;39.71;97991.97;5033214;28;20142;-78
2023/04/13 03:14:21;;;;;;;2.85;1.00;;;;;;;11.04;39.79;97983.88;5021077;28;20061;-79
2023/04/13 03:16:47;;;;;;;2.70;1.00;;;;;;;11.00;40.07;97986.91;4981090;28;20045;-80
2023/04/13 03:19:13;;;;;;;1.80;1.05;;;;;;;10.95;40.39;97986.50;4997360;28;20033;-79
2023/04/13 03:21:40;;;;;;;2.30;1.00;;;;;;;10.95;40.65;97989.91;4996866;28;20034;-79
2023/04/13 03:24:06;;;;;;;2.67;1.20;;;;;;;10.93;40.65;97988.44;4996456;28;20423;-80
2023/04/13 03:26:31;;;;;;;2.47;1.00;;;;;;;10.93;40.38;97988.44;4980673;28;20048;-81
2023/04/13 03:28:57;;;;;;;1.65;0.90;;;;;;;10.90;40.31;97989.50;4979587;28;20496;-79
2023/04/13 03:31:22;;;;;;;1.27;0.80;;;;;;;10.91;40.30;97993.78;5014227;28;20026;-80
2023/04/13 03:33:49;;;;;;;1.65;0.90;;;;;;;10.89;40.28;98000.09;5014462;28;20092;-84
2023/04/13 03:36:15;;;;;;;2.20;1.63;;;;;;;11.06;57.80;98009.84;4997484;28;20061;-77
2023/04/13 03:38:40;;;;;;;9.52;2.05;;;;;;;11.31;54.03;98016.31;5014590;28;20037;-80
2023/04/13 03:41:06;;;;;;;8.43;3.17;;;;;;;11.26;51.35;98026.34;4980540;28;20057;-88
2023/04/13 03:43:32;;;;;;;9.13;4.63;;;;;;;11.22;49.13;98027.56;4996243;28;20029;-81
2023/04/13 03:45:57;;;;;;;10.82;5.18;;;;;;;11.35;47.33;98015.06;4997172;28;20040;-77
2023/04/13 03:48:23;;;;;;;10.95;2.65;;;;;;;11.91;57.46;98025.66;4996245;28;20477;-78
2023/04/13 03:50:48;;;;;;;6.88;2.90;;;;;;;12.39;49.73;98027.25;5012809;28;20386;-80
2023/04/13 03:53:15;;;;;;;15.98;4.05;;;;;;;12.80;46.22;98022.47;5012844;28;20045;-76
2023/04/13 03:55:40;;;;;;;11.07;3.20;;;;;;;13.30;48.69;98028.97;5013693;28;20033;-84
2023/04/13 03:58:06;;;;;;;11.27;4.32;;;;;;;13.83;41.74;98027.22;4979828;28;20029;-80
2023/04/13 04:00:31;;;;;;;9.73;3.60;;;;;;;14.39;40.36;98029.47;5012336;28;20041;-78
2023/04/13 04:02:57;;;;;;;8.85;3.58;;;;;;;15.06;37.89;98045.25;5012813;28;20137;-79
2023/04/13 04:05:22;;;;;;;8.05;3.05;;;;;;;15.71;35.11;98036.53;5012240;28;20068;-79
2023/04/13 04:07:48;;;;;;;9.40;2.72;;;;;;;16.41;33.28;98042.13;4979256;28;20476;-79
2023/04/13 04:10:16;;;;;;;9.45;2.20;;;;;;;17.17;31.70;98045.00;5013601;28;20034;-79
2023/04/13 04:12:42;;;;;;;9.60;2.45;;;;;;;17.93;30.10;98047.66;5013350;28;20115;-78
2023/04/13 04:15:08;;;;;;;6.97;2.40;;;;;;;18.67;28.61;98060.00;4979489;28;20394;-80
2023/04/13 04:17:33;;;;;;;11.55;2.67;;;;;;;19.50;27.05;98063.13;4995762;28;20045;-78
2023/04/13 04:19:58;;;;;;;8.88;2.20;;;;;;;20.23;26.14;98067.31;5013063;28;20068;-80
2023/04/13 04:22:28;;;;;;;8.50;2.60;;;;;;;20.95;24.59;98071.34;5013171;28;20025;-79
2023/04/13 04:24:57;;;;;;;12.85;3.33;;;;;;;21.73;23.53;98067.34;4995163;28;20046;-79
2023/04/13 04:27:25;;;;;;;12.85;3.85;;;;;;;22.45;22.24;98069.28;4995689;28;20512;-79
2023/04/13 04:29:51;;;;;;;13.70;3.40;;;;;;;23.09;21.39;98071.06;4995810;28;20507;-79
2023/04/13 04:32:17;;;;;;;24.52;4.07;;;;;;;23.75;20.86;98084.09;4995356;28;20026;-77
2023/04/13 04:34:43;;;;;;;17.50;4.28;;;;;;;24.35;19.69;98087.06;5012727;28;20040;-79
2023/04/13 04:37:12;;;;;;;24.83;4.50;;;;;;;24.99;19.31;98085.91;5012144;28;20425;-80
2023/04/13 04:39:43;;;;;;;22.38;4.13;;;;;;;25.64;18.57;98091.31;4980396;28;20022;-80
2023/04/13 04:42:09;;;;;;;20.02;4.40;;;;;;;26.26;17.70;98097.28;5013230;28;20042;-81
2023/04/13 04:44:36;;;;;;;14.48;3.30;;;;;;;26.99;21.27;98093.16;4996204;28;20037;-80
2023/04/13 04:47:03;;;;;;;14.77;4.00;;;;;;;27.66;20.03;98094.38;5013300;28;20077;-80
2023/04/13 04:49:28;;;;;;;22.08;3.78;;;;;;;28.06;18.42;98095.25;5012958;28;20508;-81
2023/04/13 04:51:54;;;;;;;13.63;4.18;;;;;;;28.61;17.32;98090.91;5013021;28;20120;-81
2023/04/13 04:54:20;;;;;;;23.80;5.00;;;;;;;29.10;16.79;98100.81;4995604;28;20461;-80
2023/04/13 04:56:48;;;;;;;16.15;5.10;;;;;;;29.56;15.85;98094.03;4996958;28;20050;-78
2023/04/13 04:59:14;;;;;;;16.00;4.70;;;;;;;30.06;15.45;98093.88;4963960;28;20040;-78
2023/04/13 05:01:41;;;;;;;14.95;4.22;;;;;;;30.41;15.03;98101.38;4979859;28;20045;-80
2023/04/13 05:04:07;;;;;;;15.55;3.95;;;;;;;30.78;16.02;98103.13;5016779;28;20021;-79
2023/04/13 05:06:33;;;;;;;8.35;2.88;;;;;;;31.19;18.54;98100.56;5017765;28;20041;-81
2023/04/13 05:09:00;;;;;;;8.55;2.92;;;;;;;31.62;17.85;98103.06;4979260;28;20038;-81
2023/04/13 05:11:27;;;;;;;9.52;2.53;;;;;;;32.07;17.33;98105.97;4995658;28;20096;-83
2023/04/13 05:13:54;;;;;;;7.82;2.50;;;;;;;32.51;18.52;98099.13;4998412;28;20026;-85
2023/04/13 05:16:20;;;;;;;6.22;2.17;;;;;;;32.74;17.25;98097.72;5014773;28;20026;-81
2023/04/13 05:18:46;;;;;;;8.88;2.60;;;;;;;33.10;17.92;98105.63;4996629;28;20056;-71
2023/04/13 05:21:12;;;;;;;19.83;4.40;;;;;;;33.29;19.18;98101.22;4979275;28;20046;-73
2023/04/13 05:23:38;;;;;;;11.95;3.38;;;;;;;33.45;19.09;98098.41;4995004;28;20538;-73
2023/04/13 05:26:04;;;;;;;17.55;3.47;;;;;;;33.67;18.32;98096.03;4995006;28;20037;-73
2023/04/13 05:28:30;;;;;;;14.15;3.15;;;;;;;33.86;17.96;98106.19;4979065;28;20111;-76
2023/04/13 05:31:02;;;;;;;15.13;3.05;;;;;;;33.84;17.79;98113.78;4994553;28;20074;-70
2023/04/13 05:33:28;;;;;;;12.65;3.03;;;;;;;34.04;18.03;98099.25;4978784;28;20092;-70
2023/04/13 05:35:54;;;;;;;23.60;3.25;;;;;;;34.08;17.38;98103.81;4962514;28;20069;-71
2023/04/13 05:38:20;;;;;;;18.98;3.60;;;;;;;34.12;18.19;98104.03;4978914;28;20100;-71
2023/04/13 05:40:45;;;;;;;8.85;3.10;;;;;;;34.18;18.09;98102.88;5016205;28;20070;-70
2023/04/13 05:43:12;;;;;;;7.68;2.65;;;;;;;34.21;17.67;98099.59;4998860;28;20111;-71
2023/04/13 05:45:37;;;;;;;13.18;3.47;;;;;;;34.19;18.11;98106.38;4998972;28;20069;-72
2023/04/13 05:48:03;;;;;;;11.27;3.25;;;;;;;34.14;17.60;98103.75;4982291;28;20419;-71
2023/04/13 05:50:29;;;;;;;16.48;2.90;;;;;;;34.02;17.85;98104.94;4998271;28;20113;-71
2023/04/13 05:52:56;;;;;;;8.25;2.60;;;;;;;34.01;18.03;98103.31;5014673;28;20028;-70
2023/04/13 05:55:22;;;;;;;11.73;2.75;;;;;;;33.92;18.40;98094.19;5016138;28;20511;-74
2023/04/13 05:57:48;;;;;;;9.02;2.72;;;;;;;33.87;17.42;98103.19;4998330;28;20133;-73
2023/04/13 06:00:15;;;;;;;14.73;3.50;;;;;;;33.71;16.03;98112.53;4982217;28;20045;-67
2023/04/13 06:02:42;;;;;;;;;;;;;;;33.02;14.68;98111.63;4998126;28;20046;-69
2023/04/13 06:05:08;;;;;;;19.50;6.93;;;;;;;32.26;16.19;98114.34;4981226;28;19975;-70
2023/04/13 06:07:34;;;;;;;15.23;5.82;;;;;;;31.77;15.16;98121.16;4982043;28;20064;-68
2023/04/13 06:10:00;;;;;;;13.02;5.60;;;;;;;31.63;16.04;98120.88;4981913;28;20070;-68
2023/04/13 06:12:26;;;;;;;16.60;5.45;;;;;;;31.52;15.65;98122.72;4998465;28;20080;-67
2023/04/13 06:14:52;;;;;;;14.57;4.80;;;;;;;31.22;14.85;98115.41;4981818;28;20038;-68
2023/04/13 06:17:17;;;;;;;16.58;4.70;;;;;;;30.92;16.25;98122.31;4997932;28;20057;-68
2023/04/13 06:19:43;;;;;;;17.80;4.88;;;;;;;30.64;15.48;98113.59;4981469;28;20042;-70
2023/04/13 06:22:09;;;;;;;10.60;4.15;;;;;;;30.62;16.82;98120.34;4981766;28;20497;-69
2023/04/13 06:24:34;;;;;;;14.50;4.40;;;;;;;30.67;15.66;98125.72;4998387;28;20034;-70
2023/04/13 06:27:00;;;;;;;8.90;3.95;;;;;;;30.73;15.89;98134.66;4997443;28;20481;-71
2023/04/13 06:29:26;;;;;;;14.88;4.00;;;;;;;30.39;15.98;98135.81;4981565;28;20053;-68
2023/04/13 06:31:53;;;;;;;8.32;3.38;;;;;;;30.39;15.74;98132.31;5015287;28;20045;-70
2023/04/13 06:34:19;;;;;;;8.65;2.88;;;;;;;30.15;16.09;98126.50;4981434;28;20112;-71
2023/04/13 06:36:44;;;;;;;17.42;3.25;;;;;;;30.18;16.40;98129.47;4981058;28;20489;-68
2023/04/13 06:39:10;;;;;;;6.82;2.67;;;;;;;30.18;16.58;98121.41;5001761;28;20038;-69
2023/04/13 06:41:36;;;;;;;5.05;2.55;;;;;;;30.06;17.19;98126.16;4999370;28;20520;-68
2023/04/13 06:44:03;;;;;;;13.98;3.13;;;;;;;29.72;15.12;98121.88;5001409;28;20060;-68
2023/04/13 06:46:28;;;;;;;12.75;3.30;;;;;;;29.40;17.04;98122.69;4997549;28;20034;-71
2023/04/13 06:48:56;;;;;;;7.60;3.08;;;;;;;29.29;17.71;98120.13;5016178;28;20096;-68
2023/04/13 06:51:22;;;;;;;10.25;2.80;;;;;;;29.54;18.34;98125.75;4983818;28;20523;-68
2023/04/13 06:53:47;;;;;;;5.60;2.30;;;;;;;29.62;17.85;98126.34;4997253;28;20033;-68
2023/04/13 06:56:13;;;;;;;7.00;2.70;;;;;;;29.53;15.82;98128.72;4996733;28;20049;-73
2023/04/13 06:58:38;;;;;;;14.02;3.25;;;;;;;29.54;16.42;98130.31;4981030;28;20480;-67
2023/04/13 07:01:05;;;;;;;11.90;3.08;;;;;;;29.02;16.31;98128.97;4980026;28;20057;-68
2023/04/13 07:03:31;;;;;;;15.60;3.45;;;;;;;28.51;16.07;98135.34;4981055;28;20028;-68
2023/04/13 07:05:56;;;;;;;10.23;2.78;;;;;;;28.44;16.58;98123.16;4997240;28;20113;-71
2023/04/13 07:08:22;;;;;;;13.07;3.28;;;;;;;28.68;17.52;98131.81;4980605;28;20041;-68
2023/04/13 07:10:51;;;;;;;14.57;3.30;;;;;;;28.69;15.88;98131.56;4996917;28;20045;-71
2023/04/13 07:13:17;;;;;;;6.75;3.30;;;;;;;28.55;16.69;98132.16;4997024;28;20033;-75
2023/04/13 07:15:43;;;;;;;5.57;3.17;;;;;;;28.63;16.12;98139.81;4980943;28;20117;-68
2023/04/13 07:18:08;;;;;;;10.43;3.50;;;;;;;28.81;17.29;98138.66;5013226;28;20563;-67
2023/04/13 07:20:35;;;;;;;6.60;3.25;;;;;;;29.07;16.50;98142.47;4979914;28;20515;-69
2023/04/13 07:23:00;;;;;;;9.98;3.60;;;;;;;29.28;16.70;98140.81;4980690;28;20025;-69
2023/04/13 07:25:28;;;;;;;9.27;4.20;;;;;;;29.52;15.22;98143.22;4982493;28;20057;-77
2023/04/13 07:27:56;;;;;;;13.05;4.03;;;;;;;28.97;14.02;98139.66;5031038;28;20034;-80
2023/04/13 07:30:29;;;;;;;18.73;3.95;;;;;;;29.03;14.65;98136.78;5007830;28;20068;-77
2023/04/13 07:33:33;;;;;;;8.13;2.25;;;;;;;28.36;15.17;98137.81;5002515;28;20049;-80
2023/04/13 07:36:13;;;;;;;10.10;1.65;;;;;;;28.15;15.36;98134.03;4932280;29;20052;-85
2023/04/13 07:39:08;;;;;;;8.65;2.60;;;;;;;28.24;16.06;98132.53;4930024;29;20032;-79
2023/04/13 07:41:56;;;;;;;8.68;1.92;;;;;;;28.26;15.97;98119.69;4919252;29;20512;-79
2023/04/13 07:44:21;;;;;;;6.25;2.05;;;;;;;27.60;17.27;98127.50;4900189;29;20074;-69
2023/04/13 07:46:47;;;;;;;11.85;2.03;;;;;;;27.38;18.03;98125.53;4899493;29;20084;-72
2023/04/13 07:49:12;;;;;;;5.78;1.73;;;;;;;27.43;17.24;98124.78;4915427;29;20074;-72
2023/04/13 07:51:38;;;;;;;6.10;2.15;;;;;;;27.41;17.35;98127.72;4915312;29;20452;-72
2023/04/13 07:54:03;;;;;;;3.40;1.55;;;;;;;27.18;17.51;98131.28;4899267;29;20639;-76
2023/04/13 07:56:30;;;;;;;6.25;1.77;;;;;;;27.95;17.15;98134.53;4899242;29;20040;-69
2023/04/13 07:58:55;;;;;;;4.22;1.52;;;;;;;28.43;16.89;98130.41;4915224;29;20044;-74
2023/04/13 08:01:21;;;;;;;6.50;1.90;;;;;;;27.93;16.85;98129.38;4914720;29;20124;-74
2023/04/13 08:03:46;;;;;;;10.15;2.38;;;;;;;27.92;17.68;98127.75;4915496;29;20067;-76
2023/04/13 08:06:12;;;;;;;13.20;2.10;;;;;;;28.28;16.47;98125.63;4915960;29;20544;-75
2023/04/13 08:08:37;;;;;;;7.65;2.20;;;;;;;27.76;17.17;98128.56;4899756;29;20041;-70
2023/04/13 08:11:03;;;;;;;6.38;2.28;;;;;;;27.64;17.96;98122.47;4914904;29;20051;-73
2023/04/13 08:13:32;;;;;;;3.70;1.88;;;;;;;27.35;17.15;98120.63;4974671;28;20038;-77
2023/04/13 08:15:59;;;;;;;3.83;2.10;;;;;;;27.23;16.96;98118.00;4982091;28;20046;-76
2023/04/13 08:18:28;;;;;;;3.78;1.70;;;;;;;27.16;17.19;98113.84;4980412;28;20036;-77
2023/04/13 08:20:54;;;;;;;6.75;1.70;;;;;;;27.60;17.45;98116.78;4995976;28;20512;-73
2023/04/13 08:23:20;;;;;;;8.57;1.80;;;;;;;28.11;16.36;98108.75;4979786;28;20053;-74
2023/04/13 08:25:46;;;;;;;5.68;2.05;;;;;;;28.39;15.67;98113.16;4979420;28;20064;-73
2023/04/13 08:28:13;;;;;;;5.63;1.92;;;;;;;27.32;15.97;98107.72;4995498;28;20065;-72
2023/04/13 08:30:39;;;;;;;5.18;2.45;;;;;;;27.67;16.09;98113.94;4987510;28;20043;-71
2023/04/13 08:33:05;;;;;;;6.50;2.45;;;;;;;28.13;15.61;98114.66;4978548;28;20038;-75
2023/04/13 08:35:31;;;;;;;5.45;2.08;;;;;;;28.32;15.16;98105.28;4979948;28;20489;-80
2023/04/13 08:37:57;;;;;;;11.27;2.20;;;;;;;28.25;14.91;98101.16;4979846;28;20060;-71
2023/04/13 08:40:30;;;;;;;7.80;2.53;;;;;;;28.40;15.13;98090.63;4985640;28;20393;-75
2023/04/13 08:42:56;;;;;;;8.23;2.10;;;;;;;28.02;15.89;98092.22;5032909;28;20069;-79
2023/04/13 08:45:22;;;;;;;11.13;4.05;;;;;;;28.49;19.63;98099.03;5015099;28;20033;-74
2023/04/13 08:47:48;;;;;;;15.32;3.40;;;;;;;28.92;20.04;98100.13;4998594;28;20052;-77
2023/04/13 08:50:15;;;;;;;9.60;3.25;;;;;;;29.21;18.71;98103.41;4998860;28;20029;-75
2023/04/13 08:52:40;;;;;;;7.18;2.67;;;;;;;29.63;17.64;98104.56;5015485;28;20029;-80
2023/04/13 08:55:06;;;;;;;10.55;2.72;;;;;;;29.97;16.79;98100.81;5000058;28;20386;-78
2023/04/13 08:57:32;;;;;;;10.48;2.33;;;;;;;30.24;16.04;98101.53;4998042;28;20127;-78
2023/04/13 08:59:58;;;;;;;4.90;1.83;;;;;;;30.46;16.18;98095.22;4997973;28;20029;-80
2023/04/13 09:02:27;;;;;;;4.93;2.10;;;;;;;30.70;15.35;98087.50;5000466;28;20061;-80
2023/04/13 09:04:53;;;;;;;5.47;1.83;;;;;;;30.90;15.05;98081.38;4964006;28;20029;-80
2023/04/13 09:07:27;;;;;;;8.27;2.05;;;;;;;31.10;14.95;98090.59;4979679;28;20106;-81
2023/04/13 09:09:56;;;;;;;9.88;1.98;;;;;;;31.29;14.62;98080.09;4963857;28;20026;-79
2023/04/13 09:12:23;;;;;;;7.95;1.92;;;;;;;31.44;14.42;98073.91;4979945;28;20029;-79
2023/04/13 09:14:48;;;;;;;5.63;1.60;;;;;;;31.47;14.39;98079.56;4999073;28;20092;-80
2023/04/13 09:17:26;;;;;;;6.38;1.90;;;;;;;31.56;14.56;98082.56;4970007;28;20034;-81
2023/04/13 09:19:56;;;;;;;9.77;1.70;;;;;;;31.69;14.83;98095.53;5000234;28;20506;-80
2023/04/13 09:22:25;;;;;;;9.18;1.88;;;;;;;31.77;14.35;98093.34;4971514;28;20053;-79
2023/04/13 09:24:51;;;;;;;6.60;1.50;;;;;;;31.84;13.80;98086.59;4986755;28;20124;-81
2023/04/13 09:27:20;;;;;;;6.40;1.55;;;;;;;31.89;14.03;98085.78;4999794;28;20085;-80
2023/04/13 09:29:50;;;;;;;5.30;1.70;;;;;;;31.89;13.97;98105.47;4995416;28;20143;-81
2023/04/13 09:32:42;;;;;;;3.17;1.20;;;;;;;31.83;13.45;98089.56;4991562;28;20037;-78
2023/04/13 09:35:08;;;;;;;3.75;1.25;;;;;;;31.79;13.58;98086.59;4986333;28;20046;-79
2023/04/13 09:37:35;;;;;;;4.75;1.70;;;;;;;31.70;13.64;98082.81;4999023;28;20038;-81
2023/04/13 09:40:10;;;;;;;4.97;1.87;;;;;;;31.58;13.79;98085.00;4982773;28;20528;-80
2023/04/13 09:42:37;;;;;;;3.47;1.40;;;;;;;31.45;14.11;98091.69;4983192;28;20339;-80
2023/04/13 09:45:03;;;;;;;6.32;1.40;;;;;;;31.37;14.12;98080.38;4998711;28;20045;-79
2023/04/13 09:47:37;;;;;;;5.50;1.70;;;;;;;31.28;14.33;98081.16;4982952;28;20034;-78
2023/04/13 09:50:06;;;;;;;9.70;1.50;;;;;;;31.14;14.27;98084.41;4999111;28;20053;-79
2023/04/13 09:52:31;;;;;;;4.53;1.30;;;;;;;31.05;13.56;98085.19;4982387;28;20030;-78
2023/04/13 09:55:00;;;;;;;8.30;1.08;;;;;;;30.88;13.26;98080.00;4984849;28;20054;-80
2023/04/13 09:57:26;;;;;;;7.43;1.10;;;;;;;30.73;13.46;98081.56;4997646;28;20042;-79
2023/04/13 09:59:52;;;;;;;3.47;0.90;;;;;;;30.56;13.64;98073.69;4998165;28;20050;-78
2023/04/13 10:02:18;;;;;;;3.83;1.10;;;;;;;30.42;13.48;98075.25;4998384;28;20222;-78
2023/04/13 10:04:44;;;;;;;1.92;0.80;;;;;;;30.28;13.97;98080.28;4998069;28;20030;-78
2023/04/13 10:07:10;;;;;;;4.00;0.88;;;;;;;30.18;14.11;98078.34;4966410;28;20104;-79
2023/04/13 10:09:36;;;;;;;5.30;1.20;;;;;;;30.05;13.71;98071.56;4982205;28;20046;-80
2023/04/13 10:12:02;;;;;;;3.28;1.05;;;;;;;29.95;14.24;98071.47;4966200;28;20617;-80
2023/04/13 10:14:31;;;;;;;1.83;0.70;;;;;;;29.83;14.52;98066.31;4967663;28;20029;-78
2023/04/13 10:17:17;;;;;;;3.30;0.70;;;;;;;29.73;13.84;98060.81;4966576;28;20046;-80
2023/04/13 10:19:45;;;;;;;1.98;0.80;;;;;;;29.54;13.98;98055.84;4999757;28;20122;-80
2023/04/13 10:22:10;;;;;;;4.03;1.00;;;;;;;29.35;13.65;98059.97;4982705;28;20046;-79
2023/04/13 10:24:37;;;;;;;3.70;1.05;;;;;;;29.15;13.85;98050.66;4982512;28;20056;-83
2023/04/13 10:27:20;;;;;;;4.00;0.85;;;;;;;28.88;13.60;98045.28;4983528;28;20061;-78
2023/04/13 10:29:46;;;;;;;6.00;0.90;;;;;;;28.61;13.87;98037.22;5000835;28;20551;-79
2023/04/13 10:32:30;;;;;;;2.08;0.70;;;;;;;28.44;13.81;98043.44;4985805;28;20037;-80
2023/04/13 10:34:56;;;;;;;7.25;1.10;;;;;;;28.29;14.69;98033.31;4966834;28;20463;-78
2023/04/13 10:37:23;;;;;;;9.52;1.00;;;;;;;28.14;15.02;98047.34;5010545;28;20033;-79
2023/04/13 10:40:00;;;;;;;2.92;1.00;;;;;;;27.99;14.71;98033.75;4982317;28;20386;-80
2023/04/13 10:42:26;;;;;;;9.48;1.10;;;;;;;27.89;14.94;98044.28;4966250;28;20037;-80
2023/04/13 10:44:52;;;;;;;7.57;1.00;;;;;;;27.74;14.76;98051.06;4982358;28;20028;-79
2023/04/13 10:47:21;;;;;;;4.78;0.93;;;;;;;27.55;14.64;98033.59;4981810;28;20049;-80
2023/04/13 10:49:47;;;;;;;4.90;0.98;;;;;;;27.45;14.82;98036.91;4983484;28;20034;-79
2023/04/13 10:54:51;;;;;;;12.00;0.98;;;;;;;27.11;14.56;98026.16;5070481;23;20062;-84
2023/04/13 10:57:22;;;;;;;3.20;1.30;;;;;;;26.59;15.42;98031.63;4979016;28;20504;-78
2023/04/13 10:59:50;;;;;;;3.63;0.90;;;;;;;25.94;14.22;98023.56;4989510;28;20084;-70
2023/04/13 11:02:16;;;;;;;3.35;0.90;;;;;;;25.76;14.91;98021.84;4935619;28;20030;-71
2023/04/13 11:04:43;;;;;;;2.08;0.75;;;;;;;25.67;14.89;98007.19;4961017;28;20035;-73
2023/04/13 11:07:18;;;;;;;6.55;1.65;;;;;;;25.61;20.83;98022.28;4960839;28;20089;-71
2023/04/13 11:09:49;;;;;;;5.00;1.92;;;;;;;25.55;23.43;98014.41;4978678;28;20501;-69
2023/04/13 11:12:15;;;;;;;6.78;1.42;;;;;;;25.06;18.22;98017.19;4962198;28;20037;-71
2023/04/13 11:14:44;;;;;;;6.35;1.45;;;;;;;24.69;21.14;98030.66;4977706;28;20113;-68
2023/04/13 11:17:12;;;;;;;20.42;2.92;;;;;;;24.62;22.15;98016.56;4977801;28;20038;-73
2023/04/13 11:19:52;;;;;;;8.95;2.03;;;;;;;24.64;23.59;98017.19;4977669;28;20057;-77
2023/04/13 11:22:20;;;;;;;9.88;1.85;;;;;;;24.62;23.67;98011.25;4976597;28;20484;-73
2023/04/13 11:24:46;;;;;;;4.03;1.60;;;;;;;24.58;22.60;98007.41;4945933;28;20490;-72
2023/04/13 11:27:22;;;;;;;7.85;1.80;;;;;;;24.48;22.36;98005.22;4960587;28;20058;-76
2023/04/13 11:30:07;;;;;;;7.78;1.50;;;;;;;24.31;21.19;98000.50;4961773;28;20030;-77
2023/04/13 11:32:33;;;;;;;3.88;1.30;;;;;;;24.46;21.29;97991.31;4977428;28;20445;-74
2023/04/13 11:35:10;;;;;;;3.88;1.02;;;;;;;24.59;20.67;97996.50;4960900;28;20022;-76
2023/04/13 11:37:39;;;;;;;3.90;0.80;;;;;;;24.56;19.34;97996.94;4976551;28;20030;-74